Cerro Largo, Brazil
Current Conditions -  °F | °C
As of 8:00 PM on Thursday 23 Oct 2014 (Local Time) from SARP Reporting Station
Clear Clear  
Wind Chill: 86°   Ceiling: Unl
Heat Index: 86°   Visibility: 6mi
Dew Point: 61°   Wind: 7mph
Humidity: 43%   Direction: 200°SSW
Pressure: 29.88"   Gusts: NA
Location:  28.15°S, 54.74°W
Report Text: SARP 232200Z 20006KT CAVOK 30/16 Q1012
Loading
Personal Weather Stations






























Interactive Weather Map
Tropical Storm Tracking
New forecast layout! Learn more

10-Day Weather Forecast

Advertisements
Track Severe Weather on mobile